Wednesday, August 15, 2018, 6:06 AM CDT
Back to Local

KENW, Kenosha Regional Airport

Location: Kenosha, WI, United States Lat: 42.6
Local Time: 6:06 AM CDT (11:06 GMT) Lon: -87.933
Time Zone: US/Central Elev: 741 ft

Show me the last for .
Show Decoded

2018-08-15 05:53 METAR KENW 151053Z AUTO 00000KT 7SM FEW070 21/21 A2996 RMK AO2 SLP140 T02060206
                 =
2018-08-15 04:53 METAR KENW 150953Z AUTO 00000KT 6SM BR CLR 21/21 A2997 RMK AO2 SLP143 T02060206
                 =
2018-08-15 03:53 METAR KENW 150853Z AUTO 00000KT 6SM BR CLR 20/20 A2996 RMK AO2 SLP141 T02000200
                 53006 =
2018-08-15 02:53 METAR KENW 150753Z AUTO 00000KT 6SM BR CLR 20/20 A2995 RMK AO2 SLP135 T02000200
                 =
2018-08-15 01:53 METAR KENW 150653Z AUTO 00000KT 7SM CLR 21/20 A2994 RMK AO2 SLP132 T02060200 =
2018-08-15 00:53 METAR KENW 150553Z AUTO 00000KT 7SM CLR 21/21 A2995 RMK AO2 SLP136 T02060206
                 10272 20200 403110178 55006 =
2018-08-14 23:53 METAR KENW 150453Z AUTO 00000KT 7SM CLR 22/21 A2995 RMK AO2 SLP135 T02170211 =
2018-08-14 22:53 METAR KENW 150353Z AUTO 21003KT 8SM CLR 22/21 A2995 RMK AO2 SLP137 T02170211 =
2018-08-14 21:53 METAR KENW 150253Z AUTO 18003KT 9SM CLR 22/21 A2997 RMK AO2 SLP142 T02170206
                 50006 =
2018-08-14 20:53 METAR KENW 150153Z 00000KT 9SM CLR 23/21 A2997 RMK AO2 SLP143 T02280211 =
2018-08-14 19:53 METAR KENW 150053Z 00000KT 10SM CLR 24/21 A2995 RMK AO2 SLP139 T02440211 =
2018-08-14 18:53 METAR KENW 142353Z 00000KT 10SM CLR 27/22 A2995 RMK AO2 SLP137 T02720217 10311
                 20272 56005 =
2018-08-14 17:53 METAR KENW 142253Z 25003KT 10SM CLR 28/21 A2995 RMK AO2 SLP137 T02780211 =
2018-08-14 16:53 METAR KENW 142153Z 29003KT 10SM SCT055 28/22 A2996 RMK AO2 SLP140 T02780217 =
2018-08-14 15:53 METAR KENW 142053Z 28004KT 10SM CLR 29/20 A2996 RMK AO2 SLP142 T02940200 56010 =
2018-08-14 14:53 METAR KENW 141953Z 27008KT 10SM CLR 31/19 A2997 RMK AO2 SLP143 T03060189 =
2018-08-14 13:53 METAR KENW 141853Z 25006KT 10SM FEW048 31/19 A2998 RMK AO2 SLP148 T03060194 =
2018-08-14 12:53 METAR KENW 141753Z 25008KT 10SM FEW047 30/19 A2999 RMK AO2 SLP151 T03000189
                 10300 20189 56004 =
2018-08-14 11:53 METAR KENW 141653Z 29005KT 10SM FEW041 29/20 A3000 RMK AO2 SLP152 T02890200 =
2018-08-14 10:53 METAR KENW 141553Z 28005KT 10SM CLR 28/21 A3000 RMK AO2 SLP154 T02830211 =
2018-08-14 09:53 METAR KENW 141453Z 30007KT 10SM CLR 27/21 A3000 RMK AO2 SLP155 T02670206 50000 =
2018-08-14 08:53 METAR KENW 141353Z 26005KT 10SM CLR 24/20 A3001 RMK AO2 SLP156 T02440200 =
2018-08-14 07:53 METAR KENW 141253Z 27004KT 9SM CLR 22/20 A3001 RMK AO2 SLP156 T02170200 =
2018-08-14 06:53 METAR KENW 141153Z 27003KT 7SM CLR 19/18 A3000 RMK AO2 SLP156 T01890183 10200
                 20178 53004 =

Support USWX by starting your Amazon purchase here.